Time;durP1;ratioP1;P1;durP2;ratioP2;P2;SDS_P1;SDS_P2;PMS_P1;PMS_P2;Temp;Humidity;BMP_temperature;BMP_pressure;BME280_temperature;BME280_humidity;BME280_pressure;Samples;Min_cycle;Max_cycle;Signal;HPM_P1;HPM_P2
2024/01/17 00:00:06;;;;;;;17.42;8.43;;;;;;;-1.79;96.19;100214.19;5108381;28;20039;-77
2024/01/17 00:02:37;;;;;;;14.75;8.27;;;;;;;-1.81;96.31;100211.22;5108206;28;20907;-76
2024/01/17 00:05:04;;;;;;;15.10;8.75;;;;;;;-1.84;96.35;100204.13;5105335;28;20049;-76
2024/01/17 00:07:31;;;;;;;12.70;8.18;;;;;;;-1.86;96.53;100199.25;5105884;28;20048;-76
2024/01/17 00:09:58;;;;;;;14.07;8.80;;;;;;;-1.86;96.64;100191.44;5101119;28;20127;-76
2024/01/17 00:12:24;;;;;;;15.77;8.50;;;;;;;-1.87;96.38;100194.41;5104485;28;20040;-76
2024/01/17 00:14:52;;;;;;;13.20;8.43;;;;;;;-1.90;96.24;100187.31;5104119;28;20051;-76
2024/01/17 00:17:18;;;;;;;16.27;9.32;;;;;;;-1.92;96.25;100168.69;5102459;28;20044;-76
2024/01/17 00:19:45;;;;;;;11.93;8.00;;;;;;;-1.96;96.66;100163.44;5109616;28;20040;-76
2024/01/17 00:22:14;;;;;;;13.57;8.70;;;;;;;-1.98;96.56;100155.25;5107765;28;20045;-77
2024/01/17 00:24:41;;;;;;;16.08;9.00;;;;;;;-1.97;97.02;100166.41;5103973;28;20766;-76
2024/01/17 00:27:08;;;;;;;16.33;8.80;;;;;;;-1.99;97.03;100166.03;5106940;28;20040;-76
2024/01/17 00:29:35;;;;;;;20.33;9.90;;;;;;;-2.03;97.02;100158.22;5103635;28;20049;-78
2024/01/17 00:32:01;;;;;;;16.17;9.70;;;;;;;-2.05;97.17;100157.84;5102409;28;20048;-78
2024/01/17 00:34:28;;;;;;;12.18;8.63;;;;;;;-2.05;97.15;100152.63;5109813;28;20135;-79
2024/01/17 00:36:54;;;;;;;16.23;9.05;;;;;;;-2.06;97.24;100153.75;5107539;28;20043;-77
2024/01/17 00:39:22;;;;;;;16.52;9.18;;;;;;;-2.06;97.67;100151.13;5114073;28;20044;-77
2024/01/17 00:41:50;;;;;;;14.95;8.75;;;;;;;-2.10;97.62;100142.56;5110131;28;20066;-78
2024/01/17 00:44:18;;;;;;;24.33;9.82;;;;;;;-2.10;97.83;100135.47;5103423;28;20041;-78
2024/01/17 00:46:45;;;;;;;24.08;9.60;;;;;;;-2.11;97.92;100123.53;5106056;28;20048;-78
2024/01/17 00:49:12;;;;;;;14.80;8.55;;;;;;;-2.12;97.96;100126.53;5109680;28;20060;-77
2024/01/17 00:51:39;;;;;;;14.43;8.77;;;;;;;-2.12;97.93;100124.66;5104964;28;20076;-78
2024/01/17 00:54:06;;;;;;;14.88;9.23;;;;;;;-2.12;98.06;100129.13;5107509;28;20115;-78
2024/01/17 00:56:34;;;;;;;14.70;8.88;;;;;;;-2.12;98.39;100116.09;5102868;28;20499;-78
2024/01/17 00:59:00;;;;;;;13.75;8.32;;;;;;;-2.12;98.21;100105.66;5103974;28;20040;-78
2024/01/17 01:01:27;;;;;;;21.10;9.93;;;;;;;-2.13;98.08;100117.94;5106459;28;20048;-77
2024/01/17 01:03:53;;;;;;;19.85;9.68;;;;;;;-2.13;98.58;100109.38;5108141;28;20040;-78
2024/01/17 01:06:20;;;;;;;13.70;8.82;;;;;;;-2.15;98.49;100101.19;5090320;28;20053;-78
2024/01/17 01:08:47;;;;;;;19.23;10.18;;;;;;;-2.15;98.50;100103.78;5105366;28;20055;-78
2024/01/17 01:11:13;;;;;;;15.60;9.70;;;;;;;-2.16;98.79;100099.69;5112748;28;20044;-79
2024/01/17 01:13:40;;;;;;;14.93;9.05;;;;;;;-2.16;99.01;100100.44;5111641;28;20044;-77
2024/01/17 01:16:09;;;;;;;15.95;9.48;;;;;;;-2.17;98.71;100098.94;5110567;28;20044;-78
2024/01/17 01:18:36;;;;;;;19.27;9.23;;;;;;;-2.19;98.77;100095.94;5086277;28;20122;-77
2024/01/17 01:21:03;;;;;;;13.82;8.73;;;;;;;-2.19;98.95;100097.81;5106309;28;20044;-77
2024/01/17 01:23:29;;;;;;;16.08;8.82;;;;;;;-2.20;99.02;100096.31;5107150;28;20083;-77
2024/01/17 01:25:56;;;;;;;17.05;9.35;;;;;;;-2.22;98.78;100085.50;5107776;28;20083;-77
2024/01/17 01:28:23;;;;;;;15.30;8.90;;;;;;;-2.22;99.13;100083.63;5118055;28;20045;-79
2024/01/17 01:30:49;;;;;;;14.95;9.68;;;;;;;-2.25;98.93;100065.38;5124129;28;20765;-78
2024/01/17 01:33:16;;;;;;;18.83;8.70;;;;;;;-2.26;98.96;100069.09;5126005;28;20040;-78
2024/01/17 01:35:42;;;;;;;21.48;10.20;;;;;;;-2.27;99.04;100067.59;5117251;28;20053;-79
2024/01/17 01:38:09;;;;;;;17.17;9.25;;;;;;;-2.29;99.23;100049.72;5115728;28;20048;-79
2024/01/17 01:40:38;;;;;;;21.17;9.90;;;;;;;-2.31;99.01;100046.72;5116004;28;20067;-79
2024/01/17 01:43:20;;;;;;;17.58;9.25;;;;;;;-2.33;98.94;100043.75;5109474;28;20031;-79
2024/01/17 01:46:08;;;;;;;17.98;8.43;;;;;;;-2.33;99.45;100037.78;5111867;28;20067;-80
2024/01/17 01:48:35;;;;;;;16.25;9.18;;;;;;;-2.35;99.56;100032.94;5111212;28;20437;-80
2024/01/17 01:51:02;;;;;;;16.48;9.10;;;;;;;-2.36;99.25;100034.06;5093861;28;20076;-79
2024/01/17 01:53:31;;;;;;;15.35;9.55;;;;;;;-2.37;99.77;100041.13;5121048;28;20071;-78
2024/01/17 01:55:59;;;;;;;15.40;8.73;;;;;;;-2.36;99.51;100039.25;5118203;28;20044;-78
2024/01/17 01:58:26;;;;;;;16.83;9.45;;;;;;;-2.37;99.28;100035.91;5114793;28;20146;-78
2024/01/17 02:00:55;;;;;;;15.70;8.93;;;;;;;-2.38;99.07;100031.06;5118917;28;20040;-78
2024/01/17 02:03:23;;;;;;;18.33;8.82;;;;;;;-2.42;99.29;100025.88;5118315;28;20068;-78
2024/01/17 02:05:50;;;;;;;19.58;9.45;;;;;;;-2.41;99.43;100024.00;5121520;28;20783;-78
2024/01/17 02:08:17;;;;;;;11.38;8.27;;;;;;;-2.44;99.15;100019.53;5122432;28;20041;-79
2024/01/17 02:10:44;;;;;;;14.68;8.32;;;;;;;-2.44;99.53;100015.06;5120928;28;20123;-78
2024/01/17 02:13:11;;;;;;;17.42;9.68;;;;;;;-2.44;99.69;100014.31;5126641;28;20072;-79
2024/01/17 02:15:37;;;;;;;18.17;9.18;;;;;;;-2.43;99.82;100008.72;5112409;28;20071;-79
2024/01/17 02:18:05;;;;;;;19.38;9.15;;;;;;;-2.43;99.64;100000.16;5111253;28;20044;-80
2024/01/17 02:20:32;;;;;;;17.58;8.82;;;;;;;-2.45;99.66;99999.78;5092256;28;20045;-79
2024/01/17 02:22:58;;;;;;;14.15;8.20;;;;;;;-2.45;99.77;99997.94;5114667;28;20407;-80
2024/01/17 02:25:25;;;;;;;16.50;8.90;;;;;;;-2.45;99.99;99992.72;5105756;28;20115;-79
2024/01/17 02:27:52;;;;;;;14.75;8.23;;;;;;;-2.45;99.80;99981.53;5107604;28;20056;-80
2024/01/17 02:30:19;;;;;;;20.40;8.70;;;;;;;-2.45;99.63;99978.94;5088591;28;20480;-79
2024/01/17 02:32:48;;;;;;;13.40;8.52;;;;;;;-2.46;100.00;99974.84;5111433;28;20047;-80
2024/01/17 02:35:16;;;;;;;10.63;7.40;;;;;;;-2.46;100.00;99962.56;5087271;28;20526;-79
2024/01/17 02:37:42;;;;;;;17.52;8.02;;;;;;;-2.49;99.94;99963.28;5094499;28;20044;-79
2024/01/17 02:40:09;;;;;;;17.05;9.05;;;;;;;-2.48;99.85;99964.03;5123491;28;20040;-79
2024/01/17 02:42:36;;;;;;;15.27;8.68;;;;;;;-2.46;100.00;99961.81;5108402;28;20961;-79
2024/01/17 02:45:03;;;;;;;15.75;8.05;;;;;;;-2.46;100.00;99946.91;5116913;28;20044;-79
2024/01/17 02:47:29;;;;;;;19.25;9.32;;;;;;;-2.46;100.00;99944.31;5111730;28;20700;-80
2024/01/17 02:49:58;;;;;;;13.95;8.38;;;;;;;-2.49;100.00;99942.44;5105592;28;20051;-80
2024/01/17 02:52:25;;;;;;;16.02;8.40;;;;;;;-2.49;99.87;99934.63;5115338;28;20047;-80
2024/01/17 02:54:52;;;;;;;12.63;8.45;;;;;;;-2.50;100.00;99933.13;5116521;28;20054;-80
2024/01/17 02:57:20;;;;;;;15.02;8.65;;;;;;;-2.53;99.79;99928.66;5127010;28;20040;-80
2024/01/17 02:59:46;;;;;;;17.17;8.57;;;;;;;-2.54;99.76;99924.56;5125434;28;20127;-80
2024/01/17 03:02:14;;;;;;;14.90;8.40;;;;;;;-2.59;99.40;99911.88;5123556;28;20044;-80
2024/01/17 03:04:41;;;;;;;14.63;7.45;;;;;;;-2.59;100.00;99904.06;5109910;28;20040;-80
2024/01/17 03:07:07;;;;;;;13.63;8.13;;;;;;;-2.66;99.89;99898.84;5117074;28;20040;-80
2024/01/17 03:09:34;;;;;;;18.90;8.80;;;;;;;-2.67;99.78;99897.34;5117106;28;20048;-80
2024/01/17 03:12:01;;;;;;;12.88;8.00;;;;;;;-2.70;99.88;99903.28;5118067;28;20052;-80
2024/01/17 03:14:30;;;;;;;12.68;8.43;;;;;;;-2.73;100.00;99904.03;5112712;28;20045;-79
2024/01/17 03:16:58;;;;;;;12.52;7.18;;;;;;;-2.75;100.00;99901.78;5111007;28;20049;-80
2024/01/17 03:19:25;;;;;;;13.48;8.35;;;;;;;-2.76;100.00;99902.16;5107149;28;20056;-76
2024/01/17 03:21:52;;;;;;;13.52;8.02;;;;;;;-2.75;100.00;99893.97;5105357;28;20135;-75
2024/01/17 03:24:19;;;;;;;14.82;8.55;;;;;;;-2.73;100.00;99885.78;5103844;28;20501;-75
2024/01/17 03:26:45;;;;;;;14.48;7.05;;;;;;;-2.74;100.00;99881.69;5104628;28;20056;-75
2024/01/17 03:29:12;;;;;;;15.68;8.38;;;;;;;-2.76;100.00;99879.47;5105396;28;20041;-75
2024/01/17 03:31:38;;;;;;;13.43;7.95;;;;;;;-2.75;100.00;99875.00;5103100;28;20048;-75
2024/01/17 03:34:05;;;;;;;12.32;7.90;;;;;;;-2.76;100.00;99871.66;5105435;28;20036;-75
2024/01/17 03:36:32;;;;;;;17.02;7.97;;;;;;;-2.76;100.00;99873.50;5101693;28;20041;-75
2024/01/17 03:38:58;;;;;;;14.75;7.78;;;;;;;-2.76;100.00;99869.03;5105106;28;20047;-75
2024/01/17 03:41:25;;;;;;;14.10;7.93;;;;;;;-2.76;100.00;99865.69;5104887;28;20056;-75
2024/01/17 03:43:52;;;;;;;20.63;7.22;;;;;;;-2.75;100.00;99851.53;5103188;28;20489;-75
2024/01/17 03:46:18;;;;;;;12.00;7.22;;;;;;;-2.78;100.00;99844.47;5102714;28;20048;-74
2024/01/17 03:48:45;;;;;;;18.52;8.18;;;;;;;-2.80;100.00;99844.84;5105640;28;20048;-75
2024/01/17 03:51:14;;;;;;;17.35;7.43;;;;;;;-2.81;100.00;99842.63;5101432;28;20045;-75
2024/01/17 03:53:41;;;;;;;11.95;7.03;;;;;;;-2.83;100.00;99837.03;5104714;28;20090;-75
2024/01/17 03:56:07;;;;;;;13.02;7.32;;;;;;;-2.84;100.00;99832.94;5103729;28;20119;-75
2024/01/17 03:58:34;;;;;;;12.18;8.15;;;;;;;-2.87;100.00;99820.66;5109437;28;20040;-75
2024/01/17 04:01:01;;;;;;;14.75;7.75;;;;;;;-2.87;100.00;99818.06;5102452;28;20041;-75
2024/01/17 04:03:28;;;;;;;19.48;8.38;;;;;;;-2.89;100.00;99805.41;5103741;28;20087;-75
2024/01/17 04:05:55;;;;;;;14.05;7.63;;;;;;;-2.86;100.00;99811.72;5102635;28;20047;-75
2024/01/17 04:08:21;;;;;;;17.30;7.15;;;;;;;-2.87;100.00;99802.44;5103543;28;20040;-75
2024/01/17 04:10:48;;;;;;;10.93;7.07;;;;;;;-2.89;100.00;99791.63;5103871;28;20477;-75
2024/01/17 04:13:14;;;;;;;13.68;7.63;;;;;;;-2.91;100.00;99792.00;5101541;28;20052;-76
2024/01/17 04:15:42;;;;;;;12.32;6.80;;;;;;;-2.89;100.00;99774.16;5105141;28;20058;-76
2024/01/17 04:18:09;;;;;;;11.63;7.00;;;;;;;-2.89;100.00;99770.78;5101547;28;20041;-76
2024/01/17 04:20:36;;;;;;;14.93;7.93;;;;;;;-2.89;100.00;99768.19;5107294;28;20048;-79
2024/01/17 04:23:06;;;;;;;9.55;6.43;;;;;;;-2.89;100.00;99762.97;5105965;28;20499;-79
2024/01/17 04:25:33;;;;;;;14.00;7.83;;;;;;;-2.90;100.00;99758.88;5091696;28;20044;-79
2024/01/17 04:28:04;;;;;;;14.02;7.53;;;;;;;-2.91;100.00;99758.16;5112149;28;20838;-79
2024/01/17 04:30:30;;;;;;;12.73;7.20;;;;;;;-2.92;100.00;99745.50;5087653;28;20138;-79
2024/01/17 04:32:57;;;;;;;18.55;7.72;;;;;;;-2.92;100.00;99741.03;5113333;28;20503;-79
2024/01/17 04:35:26;;;;;;;16.50;7.00;;;;;;;-2.90;100.00;99740.66;5088830;28;20069;-79
2024/01/17 04:37:53;;;;;;;13.85;7.07;;;;;;;-2.89;100.00;99739.53;5112144;28;20032;-78
2024/01/17 04:40:21;;;;;;;18.35;6.82;;;;;;;-2.92;100.00;99737.69;5110478;28;20046;-78
2024/01/17 04:42:48;;;;;;;10.95;6.95;;;;;;;-2.95;100.00;99728.75;5090363;28;20044;-78
2024/01/17 04:45:18;;;;;;;9.65;6.53;;;;;;;-2.94;100.00;99729.50;5096114;28;20052;-78
2024/01/17 04:47:45;;;;;;;12.77;6.53;;;;;;;-2.95;100.00;99725.41;5118087;28;20040;-78
2024/01/17 04:50:12;;;;;;;15.63;7.13;;;;;;;-2.98;100.00;99728.75;5101269;28;20049;-77
2024/01/17 04:52:40;;;;;;;11.93;6.65;;;;;;;-2.98;100.00;99726.88;5103055;28;20405;-77
2024/01/17 04:55:09;;;;;;;12.52;6.95;;;;;;;-2.99;100.00;99717.59;5119205;28;20066;-77
2024/01/17 04:57:35;;;;;;;9.50;7.03;;;;;;;-3.04;100.00;99716.09;5107949;28;20131;-78
2024/01/17 05:00:04;;;;;;;9.07;6.47;;;;;;;-3.08;100.00;99710.13;5115126;27;20096;-79
2024/01/17 05:02:31;;;;;;;8.20;6.10;;;;;;;-3.05;100.00;99701.59;5113405;28;20044;-79
2024/01/17 05:04:58;;;;;;;11.43;6.25;;;;;;;-3.09;100.00;99706.03;5111688;28;20055;-79
2024/01/17 05:07:24;;;;;;;12.10;6.18;;;;;;;-3.11;100.00;99694.50;5113794;28;20052;-79
2024/01/17 05:09:51;;;;;;;11.02;6.95;;;;;;;-3.14;100.00;99692.66;5094076;28;20095;-79
2024/01/17 05:12:18;;;;;;;8.57;6.50;;;;;;;-3.14;100.00;99682.97;5118942;28;20068;-78
2024/01/17 05:14:44;;;;;;;14.40;7.07;;;;;;;-3.14;100.00;99682.22;5122215;28;20091;-79
2024/01/17 05:17:12;;;;;;;11.75;7.00;;;;;;;-3.15;100.00;99686.69;5117961;28;20036;-79
2024/01/17 05:19:39;;;;;;;10.63;6.63;;;;;;;-3.16;100.00;99684.47;5114815;28;20538;-76
2024/01/17 05:22:06;;;;;;;12.02;6.78;;;;;;;-3.16;100.00;99674.06;5107921;28;20044;-76
2024/01/17 05:24:33;;;;;;;10.20;6.53;;;;;;;-3.17;100.00;99669.97;5106583;28;20124;-75
2024/01/17 05:26:59;;;;;;;8.85;6.25;;;;;;;-3.16;100.00;99663.63;5107358;28;20060;-75
2024/01/17 05:29:26;;;;;;;10.35;6.57;;;;;;;-3.18;100.00;99653.59;5105756;28;20055;-75
2024/01/17 05:31:52;;;;;;;8.38;5.80;;;;;;;-3.21;99.87;99649.16;5107819;28;20044;-75
2024/01/17 05:34:19;;;;;;;10.52;6.47;;;;;;;-3.20;100.00;99640.22;5085767;28;20068;-75
2024/01/17 05:36:46;;;;;;;9.80;5.82;;;;;;;-3.21;99.83;99641.34;5088842;28;20599;-74
2024/01/17 05:39:12;;;;;;;7.65;6.38;;;;;;;-3.22;99.98;99642.47;5103717;28;20044;-74
2024/01/17 05:41:39;;;;;;;13.60;7.28;;;;;;;-3.22;100.00;99639.13;5108388;28;20040;-75
2024/01/17 05:44:05;;;;;;;9.93;6.65;;;;;;;-3.21;100.00;99619.78;5105128;28;20104;-75
2024/01/17 05:46:32;;;;;;;11.43;6.47;;;;;;;-3.21;100.00;99630.19;5105583;28;20052;-75
2024/01/17 05:48:59;;;;;;;11.18;7.25;;;;;;;-3.24;100.00;99616.06;5108301;28;20044;-76
2024/01/17 05:51:26;;;;;;;10.23;5.78;;;;;;;-3.26;99.85;99617.56;5104416;28;20052;-75
2024/01/17 05:53:53;;;;;;;9.98;6.70;;;;;;;-3.28;100.00;99610.13;5106126;28;20570;-76
2024/01/17 05:56:19;;;;;;;16.52;6.82;;;;;;;-3.29;100.00;99595.59;5103690;28;20102;-75
2024/01/17 05:58:46;;;;;;;12.35;7.30;;;;;;;-3.30;100.00;99599.31;5108033;28;20445;-75
2024/01/17 06:01:13;;;;;;;9.95;6.93;;;;;;;-3.30;100.00;99590.78;5104384;28;20511;-75
2024/01/17 06:03:40;;;;;;;9.98;6.97;;;;;;;-3.30;100.00;99580.38;5110281;28;20122;-75
2024/01/17 06:06:07;;;;;;;11.27;6.57;;;;;;;-3.32;100.00;99575.53;5087210;28;20167;-76
2024/01/17 06:08:34;;;;;;;11.15;7.05;;;;;;;-3.35;100.00;99576.28;5109232;28;20049;-74
2024/01/17 06:11:01;;;;;;;12.18;7.45;;;;;;;-3.37;100.00;99570.69;5104810;28;20083;-74
2024/01/17 06:13:27;;;;;;;13.40;6.20;;;;;;;-3.36;100.00;99567.72;5067949;28;20055;-73
2024/01/17 06:15:54;;;;;;;12.50;6.47;;;;;;;-3.37;100.00;99565.50;5088149;28;20484;-74
2024/01/17 06:18:20;;;;;;;12.57;7.15;;;;;;;-3.39;100.00;99557.31;5088636;28;20134;-74
2024/01/17 06:20:48;;;;;;;18.80;7.60;;;;;;;-3.41;100.00;99554.34;5107719;28;20036;-75
2024/01/17 06:23:14;;;;;;;7.03;5.32;;;;;;;-3.41;100.00;99549.13;5105979;28;20047;-75
2024/01/17 06:25:41;;;;;;;8.02;5.60;;;;;;;-3.45;100.00;99549.13;5112028;28;20062;-84
2024/01/17 06:28:08;;;;;;;11.15;7.32;;;;;;;-3.47;100.00;99542.81;5085295;28;20494;-84
2024/01/17 06:30:35;;;;;;;10.90;6.40;;;;;;;-3.49;100.00;99538.00;5091535;28;20044;-83
2024/01/17 06:33:02;;;;;;;13.15;7.43;;;;;;;-3.51;100.00;99542.81;5110246;28;20048;-83
2024/01/17 06:35:29;;;;;;;11.50;7.35;;;;;;;-3.52;100.00;99538.72;5090157;28;20049;-83
2024/01/17 06:37:56;;;;;;;10.82;6.38;;;;;;;-3.51;100.00;99535.00;5091607;28;20037;-82
2024/01/17 06:40:23;;;;;;;10.32;6.30;;;;;;;-3.54;100.00;99533.16;5113884;28;20032;-83
2024/01/17 06:42:50;;;;;;;14.43;6.40;;;;;;;-3.53;100.00;99526.84;5094977;28;20044;-82
2024/01/17 06:45:17;;;;;;;9.98;6.53;;;;;;;-3.53;100.00;99513.09;5090058;28;20525;-83
2024/01/17 06:47:45;;;;;;;9.48;5.93;;;;;;;-3.53;100.00;99516.44;5093624;28;20470;-84
2024/01/17 06:50:13;;;;;;;8.63;6.22;;;;;;;-3.53;100.00;99515.69;5112919;28;20072;-82
2024/01/17 06:52:40;;;;;;;10.40;6.97;;;;;;;-3.52;100.00;99514.56;5087410;28;20044;-84
2024/01/17 06:55:07;;;;;;;10.00;6.80;;;;;;;-3.52;100.00;99511.97;5077897;28;20078;-84
2024/01/17 06:57:34;;;;;;;8.70;6.18;;;;;;;-3.53;100.00;99513.09;5078484;28;20048;-84
2024/01/17 07:00:00;;;;;;;18.05;6.82;;;;;;;-3.54;100.00;99503.78;5097424;28;20062;-82
2024/01/17 07:02:27;;;;;;;10.80;6.55;;;;;;;-3.54;100.00;99498.59;5093524;28;20048;-82
2024/01/17 07:04:54;;;;;;;11.02;6.40;;;;;;;-3.51;100.00;99503.06;5118403;28;20503;-84
2024/01/17 07:07:21;;;;;;;11.70;6.25;;;;;;;-3.50;100.00;99492.28;5113468;28;20130;-83
2024/01/17 07:09:48;;;;;;;9.63;6.45;;;;;;;-3.48;100.00;99497.09;5120468;28;20123;-81
2024/01/17 07:12:14;;;;;;;12.75;5.95;;;;;;;-3.47;100.00;99486.31;5092674;28;20052;-80
2024/01/17 07:14:41;;;;;;;11.02;7.07;;;;;;;-3.45;100.00;99488.53;5115209;28;20048;-81
2024/01/17 07:17:08;;;;;;;11.35;7.53;;;;;;;-3.45;100.00;99483.34;5096734;28;20044;-82
2024/01/17 07:19:36;;;;;;;10.95;7.15;;;;;;;-3.46;100.00;99477.41;5111030;28;20190;-84
2024/01/17 07:22:03;;;;;;;10.52;5.85;;;;;;;-3.45;100.00;99489.28;5082040;28;20574;-81
2024/01/17 07:24:29;;;;;;;10.93;7.18;;;;;;;-3.45;100.00;99485.94;5113410;28;20067;-83
2024/01/17 07:26:59;;;;;;;15.15;6.38;;;;;;;-3.46;100.00;99484.47;5118346;28;20041;-79
2024/01/17 07:29:26;;;;;;;10.15;6.03;;;;;;;-3.47;100.00;99486.31;5110509;28;20048;-77
2024/01/17 07:31:53;;;;;;;13.68;6.55;;;;;;;-3.47;100.00;99482.97;5116010;28;20055;-78
2024/01/17 07:34:19;;;;;;;13.38;6.20;;;;;;;-3.47;100.00;99477.78;5092916;28;20041;-77
2024/01/17 07:36:49;;;;;;;10.68;5.25;;;;;;;-3.48;100.00;99476.28;5118069;28;20082;-77
2024/01/17 07:39:18;;;;;;;11.68;6.20;;;;;;;-3.47;100.00;99475.91;5112242;28;20434;-78
2024/01/17 07:41:47;;;;;;;8.82;5.45;;;;;;;-3.45;100.00;99475.53;5114021;28;20087;-80
2024/01/17 07:44:15;;;;;;;11.82;6.22;;;;;;;-3.46;100.00;99474.78;5089496;28;20051;-80
2024/01/17 07:46:42;;;;;;;9.68;6.32;;;;;;;-3.43;100.00;99466.25;5109980;28;20051;-81
2024/01/17 07:49:08;;;;;;;10.77;6.57;;;;;;;-3.42;100.00;99470.31;5110478;28;20079;-79
2024/01/17 07:51:36;;;;;;;12.80;6.60;;;;;;;-3.40;100.00;99468.09;5106350;28;20074;-80
2024/01/17 07:54:05;;;;;;;11.25;5.68;;;;;;;-3.39;100.00;99466.97;5089262;28;20045;-77
2024/01/17 07:56:32;;;;;;;8.82;5.63;;;;;;;-3.39;100.00;99456.56;5106385;28;20735;-75
2024/01/17 07:58:58;;;;;;;8.00;5.93;;;;;;;-3.38;100.00;99454.72;5108479;28;20040;-78
2024/01/17 08:01:25;;;;;;;10.68;6.30;;;;;;;-3.37;100.00;99451.00;5106835;28;20033;-77
2024/01/17 08:03:51;;;;;;;9.77;6.30;;;;;;;-3.35;100.00;99453.97;5107147;28;20447;-77
2024/01/17 08:06:19;;;;;;;10.70;6.13;;;;;;;-3.33;100.00;99448.38;5109635;28;20044;-77
2024/01/17 08:08:46;;;;;;;9.05;5.70;;;;;;;-3.32;100.00;99444.66;5110521;28;20056;-77
2024/01/17 08:11:12;;;;;;;8.63;6.35;;;;;;;-3.30;100.00;99445.03;5085823;28;20052;-76
2024/01/17 08:13:39;;;;;;;7.65;5.40;;;;;;;-3.28;100.00;99438.31;5103240;28;20055;-77
2024/01/17 08:16:06;;;;;;;10.40;5.60;;;;;;;-3.29;100.00;99428.28;5110822;28;20048;-78
2024/01/17 08:18:35;;;;;;;9.20;5.90;;;;;;;-3.28;100.00;99417.50;5106290;28;20045;-77
2024/01/17 08:21:03;;;;;;;9.48;6.13;;;;;;;-3.26;100.00;99412.66;5104160;28;20131;-78
2024/01/17 08:23:29;;;;;;;12.68;6.43;;;;;;;-3.22;100.00;99416.00;5105338;28;20573;-78
2024/01/17 08:25:56;;;;;;;10.18;6.40;;;;;;;-3.21;100.00;99409.69;5103052;28;20369;-77
2024/01/17 08:28:23;;;;;;;7.93;5.63;;;;;;;-3.20;100.00;99413.72;5107474;28;20054;-78
2024/01/17 08:30:49;;;;;;;8.75;6.20;;;;;;;-3.18;100.00;99408.91;5110559;28;20527;-77
2024/01/17 08:33:16;;;;;;;8.93;5.30;;;;;;;-3.20;100.00;99407.81;5108823;28;20044;-78
2024/01/17 08:35:42;;;;;;;7.70;5.85;;;;;;;-3.21;100.00;99409.69;5106958;28;20905;-79
2024/01/17 08:38:09;;;;;;;10.82;6.85;;;;;;;-3.17;100.00;99407.03;5107017;28;20040;-78
2024/01/17 08:40:36;;;;;;;10.68;6.05;;;;;;;-3.14;100.00;99390.66;5107493;28;20048;-78
2024/01/17 08:43:04;;;;;;;11.07;6.00;;;;;;;-3.12;100.00;99385.81;5109193;28;20055;-74
2024/01/17 08:45:31;;;;;;;14.90;7.70;;;;;;;-3.07;100.00;99393.97;5098738;28;20048;-74
2024/01/17 08:47:57;;;;;;;10.85;6.80;;;;;;;-3.05;100.00;99389.13;5104096;28;20055;-74
2024/01/17 08:50:25;;;;;;;13.48;6.63;;;;;;;-3.05;100.00;99386.53;5104803;28;20040;-74
2024/01/17 08:52:52;;;;;;;10.18;6.30;;;;;;;-3.00;99.82;99390.59;5104702;28;20123;-76
2024/01/17 08:55:18;;;;;;;10.32;6.45;;;;;;;-2.99;99.96;99388.75;5108174;28;20115;-77
2024/01/17 08:57:45;;;;;;;13.18;7.68;;;;;;;-2.96;100.00;99391.31;5107497;28;20044;-78
2024/01/17 09:00:14;;;;;;;10.45;6.60;;;;;;;-2.96;99.35;99386.13;5101871;28;20048;-77
2024/01/17 09:02:41;;;;;;;12.30;6.68;;;;;;;-2.92;99.41;99383.50;5106556;28;20044;-77
2024/01/17 09:05:07;;;;;;;13.98;6.00;;;;;;;-2.87;99.54;99377.91;5101457;28;20048;-76
2024/01/17 09:07:36;;;;;;;11.77;7.13;;;;;;;-2.86;99.05;99376.78;5100868;28;20503;-76
2024/01/17 09:10:03;;;;;;;11.50;6.45;;;;;;;-2.84;99.28;99367.47;5101166;28;20045;-74
2024/01/17 09:12:30;;;;;;;9.32;5.50;;;;;;;-2.84;99.03;99371.91;5103169;28;20071;-75
2024/01/17 09:14:56;;;;;;;13.80;6.22;;;;;;;-2.86;98.79;99368.97;5106763;28;20105;-74
2024/01/17 09:17:23;;;;;;;10.98;6.80;;;;;;;-2.86;98.91;99359.28;5103402;28;20044;-74
2024/01/17 09:19:50;;;;;;;9.15;6.45;;;;;;;-2.82;98.78;99354.06;5102577;28;20123;-74
2024/01/17 09:22:17;;;;;;;9.23;6.47;;;;;;;-2.80;98.97;99346.59;5105572;28;20036;-74
2024/01/17 09:24:43;;;;;;;9.32;6.28;;;;;;;-2.78;98.49;99347.66;5101588;28;20044;-74
2024/01/17 09:27:10;;;;;;;11.40;6.22;;;;;;;-2.74;98.33;99342.44;5104057;28;20105;-74
2024/01/17 09:29:37;;;;;;;9.35;6.07;;;;;;;-2.69;98.54;99331.63;5097366;28;20033;-74
2024/01/17 09:32:04;;;;;;;10.48;7.20;;;;;;;-2.70;98.41;99328.28;5104706;28;20140;-74
2024/01/17 09:34:34;;;;;;;12.68;7.10;;;;;;;-2.68;98.23;99317.47;5100477;28;20044;-75
2024/01/17 09:37:02;;;;;;;16.30;7.82;;;;;;;-2.66;98.03;99312.63;5103216;28;20519;-75
2024/01/17 09:39:29;;;;;;;14.05;6.43;;;;;;;-2.64;98.11;99323.41;5103608;28;20044;-75
2024/01/17 09:41:58;;;;;;;12.88;7.07;;;;;;;-2.61;97.70;99317.41;5103813;28;20139;-76
2024/01/17 09:44:27;;;;;;;10.18;7.25;;;;;;;-2.56;97.56;99314.41;5084411;28;20063;-77
2024/01/17 09:46:58;;;;;;;15.57;7.10;;;;;;;-2.48;98.02;99318.44;5087743;28;20051;-77
2024/01/17 09:49:27;;;;;;;11.32;7.20;;;;;;;-2.43;97.40;99317.28;5107633;28;20051;-77
2024/01/17 09:51:54;;;;;;;16.80;6.75;;;;;;;-2.40;97.52;99321.72;5108720;28;20044;-77
2024/01/17 09:54:25;;;;;;;10.70;6.97;;;;;;;-2.38;96.94;99317.59;5109514;28;20507;-77
2024/01/17 09:56:56;;;;;;;8.48;6.78;;;;;;;-2.34;96.83;99307.13;5106010;28;20767;-76
2024/01/17 09:59:33;;;;;;;13.57;6.78;;;;;;;-2.31;96.69;99303.75;5110832;28;20044;-78
2024/01/17 10:02:01;;;;;;;8.95;6.43;;;;;;;-2.30;96.31;99310.44;5113628;28;20048;-81
2024/01/17 10:04:28;;;;;;;9.20;7.10;;;;;;;-2.31;96.45;99305.63;5110162;28;20564;-79
2024/01/17 10:06:56;;;;;;;12.98;6.82;;;;;;;-2.28;96.05;99305.59;5113026;28;20051;-80
2024/01/17 10:09:24;;;;;;;10.07;6.60;;;;;;;-2.25;96.12;99307.44;5109569;28;20044;-76
2024/01/17 10:11:51;;;;;;;11.60;7.32;;;;;;;-2.18;95.90;99293.59;5113055;28;20185;-80
2024/01/17 10:14:23;;;;;;;15.25;7.85;;;;;;;-2.11;95.68;99301.34;5115417;28;20050;-79
2024/01/17 10:16:50;;;;;;;10.82;6.28;;;;;;;-2.08;95.49;99297.97;5115257;28;20114;-82
2024/01/17 10:19:17;;;;;;;12.05;6.82;;;;;;;-2.08;95.00;99298.69;5114724;28;20040;-82
2024/01/17 10:21:45;;;;;;;13.15;6.47;;;;;;;-2.03;94.71;99294.94;5091972;28;20491;-77
2024/01/17 10:24:13;;;;;;;17.15;7.10;;;;;;;-2.04;94.46;99291.59;5102724;28;20123;-78
2024/01/17 10:26:44;;;;;;;11.02;7.20;;;;;;;-2.02;94.34;99283.38;5113902;28;20577;-78
2024/01/17 10:29:11;;;;;;;10.60;7.20;;;;;;;-1.98;93.97;99281.44;5114133;28;20048;-78
2024/01/17 10:31:39;;;;;;;15.75;8.00;;;;;;;-1.89;94.48;99279.13;5089587;28;20044;-78
2024/01/17 10:34:07;;;;;;;11.32;6.45;;;;;;;-1.86;93.57;99267.91;5116048;28;20048;-78
2024/01/17 10:36:39;;;;;;;9.65;7.22;;;;;;;-1.87;93.40;99263.81;5108691;28;20048;-78
2024/01/17 10:39:05;;;;;;;12.20;7.50;;;;;;;-1.83;93.26;99254.06;5119268;28;20083;-78
2024/01/17 10:41:32;;;;;;;13.02;7.03;;;;;;;-1.84;93.17;99249.25;5116791;28;20047;-78
2024/01/17 10:44:04;;;;;;;11.90;7.72;;;;;;;-1.83;92.45;99238.44;5115544;28;20029;-78
2024/01/17 10:46:31;;;;;;;14.27;7.25;;;;;;;-1.81;92.91;99241.38;5119335;28;20036;-80
2024/01/17 10:48:59;;;;;;;15.63;7.55;;;;;;;-1.75;92.52;99236.47;5118091;28;20070;-79
2024/01/17 10:51:26;;;;;;;11.45;6.90;;;;;;;-1.70;91.99;99230.81;5117022;28;20052;-79
2024/01/17 10:53:55;;;;;;;12.07;7.70;;;;;;;-1.62;92.16;99237.44;5094915;28;20059;-77
2024/01/17 10:56:26;;;;;;;15.07;7.47;;;;;;;-1.59;92.05;99233.28;5106039;28;20044;-76
2024/01/17 10:58:54;;;;;;;14.38;7.65;;;;;;;-1.54;91.90;99232.84;5104570;28;20041;-76
2024/01/17 11:01:25;;;;;;;10.45;7.15;;;;;;;-1.46;91.45;99236.84;5106334;28;20040;-76
2024/01/17 11:03:57;;;;;;;11.88;7.35;;;;;;;-1.40;91.28;99230.03;5110805;28;20106;-77
2024/01/17 11:06:25;;;;;;;9.43;6.55;;;;;;;-1.40;91.44;99230.03;5106656;28;20837;-76
2024/01/17 11:08:53;;;;;;;12.20;7.78;;;;;;;-1.39;90.44;99223.69;5111545;28;20465;-77
2024/01/17 11:11:23;;;;;;;14.23;7.20;;;;;;;-1.39;90.35;99218.47;5113590;28;20134;-77
2024/01/17 11:13:50;;;;;;;8.75;7.30;;;;;;;-1.37;90.37;99222.16;5101611;28;20052;-77
2024/01/17 11:16:18;;;;;;;12.13;7.20;;;;;;;-1.34;90.11;99218.03;5105932;28;20048;-82
2024/01/17 11:18:47;;;;;;;10.73;7.75;;;;;;;-1.27;89.69;99215.31;5093198;28;20045;-83
2024/01/17 11:21:20;;;;;;;17.88;7.85;;;;;;;-1.22;89.76;99214.13;5092159;28;20041;-86